createdAt,value
2019-03-27T00:00:27.873Z,7.81
2019-03-27T00:01:27.928Z,7.70
2019-03-27T00:02:27.982Z,7.76
2019-03-27T00:03:28.034Z,7.74
2019-03-27T00:04:28.087Z,7.71
2019-03-27T00:05:28.141Z,7.74
2019-03-27T00:06:28.194Z,7.81
2019-03-27T00:07:28.248Z,7.79
2019-03-27T00:08:28.300Z,7.66
2019-03-27T00:09:28.353Z,7.77
2019-03-27T00:10:28.408Z,7.69
2019-03-27T00:11:28.461Z,7.66
2019-03-27T00:12:28.515Z,7.60
2019-03-27T00:13:28.567Z,7.62
2019-03-27T00:14:28.620Z,7.60
2019-03-27T00:15:28.674Z,7.63
2019-03-27T00:16:28.729Z,7.63
2019-03-27T00:17:28.781Z,7.60
2019-03-27T00:18:28.835Z,7.55
2019-03-27T00:19:28.888Z,7.63
2019-03-27T00:20:28.941Z,7.60
2019-03-27T00:21:28.993Z,7.60
2019-03-27T00:22:29.047Z,7.57
2019-03-27T00:23:29.100Z,7.58
2019-03-27T00:24:29.155Z,7.55
2019-03-27T00:25:29.206Z,7.57
2019-03-27T00:26:29.261Z,7.60
2019-03-27T00:27:29.315Z,7.62
2019-03-27T00:28:29.369Z,7.66
2019-03-27T00:29:29.419Z,7.58
2019-03-27T00:30:29.476Z,7.50
2019-03-27T00:31:29.526Z,7.57
2019-03-27T00:32:29.581Z,7.52
2019-03-27T00:33:29.633Z,7.55
2019-03-27T00:34:29.687Z,7.51
2019-03-27T00:35:29.743Z,7.44
2019-03-27T00:36:29.794Z,7.52
2019-03-27T00:37:29.846Z,7.51
2019-03-27T00:38:29.967Z,7.52
2019-03-27T00:39:29.953Z,7.54
2019-03-27T00:40:30.008Z,7.54
2019-03-27T00:41:30.059Z,7.51
2019-03-27T00:42:30.114Z,7.55
2019-03-27T00:43:30.166Z,7.55
2019-03-27T00:44:30.219Z,7.54
2019-03-27T00:45:30.270Z,7.50
2019-03-27T00:46:30.323Z,7.45
2019-03-27T00:47:30.379Z,7.51
2019-03-27T00:48:30.432Z,7.52
2019-03-27T00:49:30.486Z,7.50
2019-03-27T00:50:30.539Z,7.42
2019-03-27T00:51:30.602Z,7.36
2019-03-27T00:52:30.645Z,7.48
2019-03-27T00:53:30.696Z,7.39
2019-03-27T00:54:30.753Z,7.32
2019-03-27T00:55:30.805Z,7.34
2019-03-27T00:56:30.861Z,7.37
2019-03-27T00:57:30.908Z,7.39
2019-03-27T00:58:30.963Z,7.32
2019-03-27T00:59:31.017Z,7.36
2019-03-27T01:00:31.072Z,7.37
2019-03-27T01:01:31.121Z,7.21
2019-03-27T01:02:31.175Z,7.19
2019-03-27T01:03:31.226Z,7.21
2019-03-27T01:04:31.281Z,7.15
2019-03-27T01:05:31.334Z,7.15
2019-03-27T01:06:31.411Z,7.09
2019-03-27T01:07:31.439Z,7.05
2019-03-27T01:08:31.494Z,7.04
2019-03-27T01:09:31.546Z,7.04
2019-03-27T01:10:31.599Z,7.07
2019-03-27T01:11:31.653Z,7.04
2019-03-27T01:12:31.707Z,7.01
2019-03-27T01:13:31.759Z,7.09
2019-03-27T01:14:31.812Z,7.07
2019-03-27T01:15:39.661Z,7.01
2019-03-27T01:16:31.918Z,7.05
2019-03-27T01:17:31.973Z,7.00
2019-03-27T01:18:32.031Z,7.11
2019-03-27T01:19:32.078Z,7.04
2019-03-27T01:20:32.131Z,7.05
2019-03-27T01:21:32.183Z,6.96
2019-03-27T01:22:32.236Z,6.94
2019-03-27T01:23:32.292Z,6.90
2019-03-27T01:24:32.342Z,6.94
2019-03-27T01:25:32.395Z,6.94
2019-03-27T01:26:32.449Z,6.90
2019-03-27T01:27:35.521Z,6.96
2019-03-27T01:28:32.555Z,7.01
2019-03-27T01:29:32.608Z,7.07
2019-03-27T01:30:32.661Z,7.04
2019-03-27T01:31:32.713Z,7.08
2019-03-27T01:32:32.767Z,7.12
2019-03-27T01:33:32.819Z,7.08
2019-03-27T01:34:32.872Z,7.05
2019-03-27T01:35:32.926Z,7.05
2019-03-27T01:36:32.979Z,6.91
2019-03-27T01:37:33.032Z,6.93
2019-03-27T01:38:33.145Z,6.96
2019-03-27T01:39:33.142Z,6.94
2019-03-27T01:40:33.190Z,6.93
2019-03-27T01:41:33.243Z,6.83
2019-03-27T01:42:33.297Z,6.90
2019-03-27T01:43:33.349Z,6.91
2019-03-27T01:44:33.401Z,6.89
2019-03-27T01:45:33.454Z,6.78
2019-03-27T01:46:33.507Z,6.90
2019-03-27T01:47:33.560Z,6.86
2019-03-27T01:48:33.613Z,6.87
2019-03-27T01:49:33.664Z,6.96
2019-03-27T01:50:33.719Z,6.89
2019-03-27T01:51:33.770Z,6.79
2019-03-27T01:52:33.823Z,6.76
2019-03-27T01:53:33.879Z,6.68
2019-03-27T01:54:33.929Z,6.58
2019-03-27T01:55:33.983Z,6.46
2019-03-27T01:56:34.035Z,6.40
2019-03-27T01:57:34.087Z,6.42
2019-03-27T01:58:34.139Z,6.39
2019-03-27T01:59:34.192Z,6.39
2019-03-27T02:00:34.246Z,6.40
2019-03-27T02:01:34.297Z,6.40
2019-03-27T02:02:34.350Z,6.35
2019-03-27T02:03:34.403Z,6.43
2019-03-27T02:04:34.457Z,6.46
2019-03-27T02:05:34.508Z,6.36
2019-03-27T02:06:34.560Z,6.36
2019-03-27T02:07:34.615Z,6.38
2019-03-27T02:08:34.666Z,6.28
2019-03-27T02:09:34.718Z,6.38
2019-03-27T02:10:34.772Z,6.19
2019-03-27T02:11:34.825Z,6.19
2019-03-27T02:12:34.876Z,6.19
2019-03-27T02:13:34.934Z,6.10
2019-03-27T02:14:34.981Z,6.11
2019-03-27T02:15:35.034Z,6.06
2019-03-27T02:16:35.088Z,6.08
2019-03-27T02:17:35.139Z,5.95
2019-03-27T02:18:35.192Z,5.87
2019-03-27T02:19:35.243Z,5.85
2019-03-27T02:20:35.297Z,5.88
2019-03-27T02:21:35.348Z,5.81
2019-03-27T02:22:35.402Z,5.80
2019-03-27T02:23:35.455Z,5.80
2019-03-27T02:24:35.508Z,5.87
2019-03-27T02:25:35.559Z,5.87
2019-03-27T02:26:35.611Z,5.99
2019-03-27T02:27:35.664Z,5.81
2019-03-27T02:28:35.718Z,5.70
2019-03-27T02:29:35.767Z,5.66
2019-03-27T02:30:35.823Z,5.58
2019-03-27T02:31:35.875Z,5.59
2019-03-27T02:32:35.926Z,5.47
2019-03-27T02:34:18.411Z,5.27
2019-03-27T02:35:18.464Z,5.30
2019-03-27T02:36:18.515Z,5.14
2019-03-27T02:37:18.579Z,5.15
2019-03-27T02:38:18.627Z,5.20
2019-03-27T02:39:18.673Z,5.23
2019-03-27T02:40:18.724Z,5.15
2019-03-27T02:41:18.776Z,5.12
2019-03-27T02:42:18.829Z,5.15
2019-03-27T02:43:18.885Z,5.06
2019-03-27T02:44:18.931Z,5.04
2019-03-27T02:45:18.983Z,4.97
2019-03-27T02:46:24.957Z,5.14
2019-03-27T02:47:19.087Z,5.26
2019-03-27T02:48:19.140Z,5.14
2019-03-27T02:49:19.197Z,5.11
2019-03-27T02:50:19.244Z,5.22
2019-03-27T02:51:19.300Z,5.15
2019-03-27T02:52:19.348Z,5.15
2019-03-27T02:53:19.401Z,5.14
2019-03-27T02:54:19.461Z,5.11
2019-03-27T02:55:19.505Z,5.06
2019-03-27T02:56:19.555Z,5.05
2019-03-27T02:57:19.607Z,4.94
2019-03-27T02:58:19.657Z,4.79
2019-03-27T02:59:19.710Z,4.84
2019-03-27T03:00:19.910Z,4.83
2019-03-27T03:01:19.813Z,4.69
2019-03-27T03:02:19.864Z,4.69
2019-03-27T03:03:19.917Z,4.68
2019-03-27T03:04:19.968Z,4.69
2019-03-27T03:05:20.027Z,4.69
2019-03-27T03:06:20.070Z,4.69
2019-03-27T03:07:20.122Z,4.65
2019-03-27T03:08:20.175Z,4.65
2019-03-27T03:09:20.226Z,4.61
2019-03-27T03:10:20.277Z,4.50
2019-03-27T03:11:20.331Z,4.68
2019-03-27T03:12:20.385Z,4.77
2019-03-27T03:13:20.434Z,4.83
2019-03-27T03:14:20.484Z,4.84
2019-03-27T03:15:20.534Z,4.67
2019-03-27T03:16:20.588Z,4.69
2019-03-27T03:17:20.643Z,4.56
2019-03-27T03:18:20.692Z,4.59
2019-03-27T03:19:20.740Z,4.43
2019-03-27T03:20:20.797Z,4.44
2019-03-27T03:21:20.845Z,4.38
2019-03-27T03:22:20.906Z,4.29
2019-03-27T03:23:20.948Z,4.29
2019-03-27T03:24:21.001Z,4.28
2019-03-27T03:25:21.050Z,4.31
2019-03-27T03:26:21.106Z,4.34
2019-03-27T03:27:21.153Z,4.28
2019-03-27T03:28:21.205Z,4.44
2019-03-27T03:29:21.262Z,4.43
2019-03-27T03:30:21.327Z,4.39
2019-03-27T03:31:21.358Z,4.36
2019-03-27T03:32:21.439Z,4.21
2019-03-27T03:34:03.892Z,4.24
2019-03-27T03:35:03.945Z,4.10
2019-03-27T03:36:03.996Z,4.13
2019-03-27T03:37:04.046Z,4.21
2019-03-27T03:38:04.097Z,4.24
2019-03-27T03:39:04.156Z,4.18
2019-03-27T03:40:04.199Z,4.24
2019-03-27T03:41:04.267Z,4.32
2019-03-27T03:42:04.303Z,4.34
2019-03-27T03:43:04.361Z,4.42
2019-03-27T03:44:04.420Z,4.47
2019-03-27T03:45:04.456Z,4.43
2019-03-27T03:46:04.507Z,4.25
2019-03-27T03:47:04.562Z,4.25
2019-03-27T03:48:04.610Z,4.13
2019-03-27T03:49:04.659Z,4.00
2019-03-27T03:50:04.710Z,4.06
2019-03-27T03:51:04.762Z,3.93
2019-03-27T03:52:04.814Z,3.98
2019-03-27T03:53:04.873Z,3.95
2019-03-27T03:54:04.930Z,3.93
2019-03-27T03:55:04.969Z,3.84
2019-03-27T03:56:05.023Z,3.75
2019-03-27T03:57:05.070Z,3.82
2019-03-27T03:58:05.118Z,3.81
2019-03-27T03:59:05.170Z,3.82
2019-03-27T04:00:05.222Z,3.84
2019-03-27T04:01:05.283Z,3.86
2019-03-27T04:02:05.325Z,3.95
2019-03-27T04:03:05.380Z,3.86
2019-03-27T04:04:05.426Z,3.89
2019-03-27T04:05:05.477Z,3.90
2019-03-27T04:06:05.527Z,3.98
2019-03-27T04:07:05.578Z,3.98
2019-03-27T04:08:05.634Z,4.11
2019-03-27T04:09:05.689Z,4.18
2019-03-27T04:10:05.731Z,4.14
2019-03-27T04:11:05.781Z,4.06
2019-03-27T04:12:05.833Z,4.08
2019-03-27T04:13:05.883Z,3.95
2019-03-27T04:14:05.937Z,4.14
2019-03-27T04:15:05.986Z,4.02
2019-03-27T04:16:06.053Z,4.02
2019-03-27T04:17:17.095Z,3.98
2019-03-27T04:18:06.138Z,4.06
2019-03-27T04:19:06.191Z,4.13
2019-03-27T04:20:06.240Z,4.04
2019-03-27T04:21:06.292Z,3.99
2019-03-27T04:22:06.343Z,4.00
2019-03-27T04:23:06.394Z,4.06
2019-03-27T04:24:06.444Z,3.95
2019-03-27T04:25:06.526Z,4.08
2019-03-27T04:26:10.259Z,3.89
2019-03-27T04:27:06.596Z,3.92
2019-03-27T04:28:06.648Z,3.77
2019-03-27T04:29:06.700Z,3.70
2019-03-27T04:30:06.749Z,3.74
2019-03-27T04:31:06.800Z,3.71
2019-03-27T04:32:06.865Z,3.64
2019-03-27T04:33:06.906Z,3.71
2019-03-27T04:34:06.955Z,3.86
2019-03-27T04:35:07.004Z,3.75
2019-03-27T04:36:07.054Z,3.74
2019-03-27T04:37:07.109Z,3.68
2019-03-27T04:38:07.157Z,3.60
2019-03-27T04:39:07.208Z,3.70
2019-03-27T04:40:07.258Z,3.70
2019-03-27T04:41:07.310Z,3.64
2019-03-27T04:42:07.362Z,3.60
2019-03-27T04:43:07.410Z,3.72
2019-03-27T04:44:07.463Z,3.63
2019-03-27T04:45:07.514Z,3.62
2019-03-27T04:46:07.563Z,3.60
2019-03-27T04:47:07.648Z,3.60
2019-03-27T04:48:07.667Z,3.49
2019-03-27T04:49:07.912Z,3.59
2019-03-27T04:50:07.768Z,3.50
2019-03-27T04:51:07.818Z,3.44
2019-03-27T04:52:07.868Z,3.41
2019-03-27T04:53:07.919Z,3.42
2019-03-27T04:54:07.970Z,3.44
2019-03-27T04:55:08.020Z,3.34
2019-03-27T04:56:08.070Z,3.30
2019-03-27T04:57:08.122Z,3.26
2019-03-27T04:58:08.171Z,3.31
2019-03-27T04:59:08.222Z,3.34
2019-03-27T05:00:08.273Z,3.41
2019-03-27T05:01:08.349Z,3.44
2019-03-27T05:02:08.373Z,3.44
2019-03-27T05:03:08.426Z,3.34
2019-03-27T05:04:08.475Z,3.28
2019-03-27T05:05:08.527Z,3.45
2019-03-27T05:06:08.576Z,3.34
2019-03-27T05:07:08.628Z,3.28
2019-03-27T05:08:08.683Z,3.22
2019-03-27T05:09:08.736Z,3.31
2019-03-27T05:10:08.778Z,3.37
2019-03-27T05:11:09.191Z,3.45
2019-03-27T05:12:08.892Z,3.60
2019-03-27T05:13:08.932Z,3.49
2019-03-27T05:14:08.981Z,3.63
2019-03-27T05:15:09.032Z,3.64
2019-03-27T05:16:09.083Z,3.64
2019-03-27T05:17:09.134Z,3.63
2019-03-27T05:18:09.186Z,3.70
2019-03-27T05:19:09.237Z,3.64
2019-03-27T05:20:09.285Z,3.59
2019-03-27T05:21:09.337Z,3.57
2019-03-27T05:22:09.388Z,3.60
2019-03-27T05:23:09.440Z,3.68
2019-03-27T05:24:09.489Z,3.60
2019-03-27T05:25:09.538Z,3.60
2019-03-27T05:26:09.588Z,3.59
2019-03-27T05:27:09.640Z,3.49
2019-03-27T05:28:09.691Z,3.34
2019-03-27T05:29:09.741Z,3.23
2019-03-27T05:30:09.790Z,3.33
2019-03-27T05:31:09.843Z,3.31
2019-03-27T05:32:09.893Z,3.34
2019-03-27T05:33:09.943Z,3.46
2019-03-27T05:34:10.304Z,3.46
2019-03-27T05:35:10.051Z,3.42
2019-03-27T05:36:10.416Z,3.34
2019-03-27T05:37:10.498Z,3.33
2019-03-27T05:38:10.196Z,3.46
2019-03-27T05:39:10.253Z,3.53
2019-03-27T05:40:10.298Z,3.49
2019-03-27T05:41:10.350Z,3.46
2019-03-27T05:42:10.433Z,3.57
2019-03-27T05:43:10.449Z,3.45
2019-03-27T05:44:10.502Z,3.56
2019-03-27T05:45:10.555Z,3.56
2019-03-27T05:46:10.602Z,3.35
2019-03-27T05:47:10.651Z,3.44
2019-03-27T05:48:10.702Z,3.39
2019-03-27T05:49:10.754Z,3.42
2019-03-27T05:50:10.803Z,3.30
2019-03-27T05:51:10.852Z,3.23
2019-03-27T05:52:10.905Z,3.16
2019-03-27T05:53:10.956Z,3.17
2019-03-27T05:54:11.007Z,3.23
2019-03-27T05:55:11.057Z,3.10
2019-03-27T05:56:11.115Z,3.17
2019-03-27T05:57:11.157Z,3.17
2019-03-27T05:58:11.208Z,3.17
2019-03-27T05:59:11.257Z,3.17
2019-03-27T06:00:11.309Z,3.20
2019-03-27T06:01:11.366Z,3.19
2019-03-27T06:02:11.409Z,3.17
2019-03-27T06:03:11.460Z,3.20
2019-03-27T06:04:11.595Z,3.25
2019-03-27T06:05:11.562Z,3.44
2019-03-27T06:06:11.613Z,3.34
2019-03-27T06:07:11.664Z,3.35
2019-03-27T06:08:11.713Z,3.35
2019-03-27T06:09:11.765Z,3.50
2019-03-27T06:10:11.813Z,3.52
2019-03-27T06:11:11.864Z,3.54
2019-03-27T06:12:11.917Z,3.53
2019-03-27T06:13:11.966Z,3.42
2019-03-27T06:14:12.016Z,3.45
2019-03-27T06:15:12.069Z,3.50
2019-03-27T06:16:12.117Z,3.50
2019-03-27T06:17:12.257Z,3.42
2019-03-27T06:18:13.353Z,3.50
2019-03-27T06:19:12.269Z,3.44
2019-03-27T06:20:12.321Z,3.41
2019-03-27T06:21:12.372Z,3.45
2019-03-27T06:22:14.955Z,3.50
2019-03-27T06:23:12.473Z,3.52
2019-03-27T06:24:12.525Z,3.54
2019-03-27T06:25:12.599Z,3.64
2019-03-27T06:26:12.629Z,3.62
2019-03-27T06:27:12.676Z,3.62
2019-03-27T06:28:12.727Z,3.63
2019-03-27T06:29:15.694Z,3.60
2019-03-27T06:30:12.827Z,3.75
2019-03-27T06:31:12.882Z,3.67
2019-03-27T06:32:12.929Z,3.68
2019-03-27T06:33:12.984Z,3.74
2019-03-27T06:34:13.031Z,3.68
2019-03-27T06:35:13.658Z,3.68
2019-03-27T06:36:13.134Z,3.70
2019-03-27T06:37:13.184Z,3.74
2019-03-27T06:38:13.234Z,3.70
2019-03-27T06:39:13.285Z,3.75
2019-03-27T06:40:13.339Z,3.81
2019-03-27T06:41:13.392Z,3.77
2019-03-27T06:42:13.441Z,3.86
2019-03-27T06:43:13.490Z,3.86
2019-03-27T06:44:13.539Z,3.93
2019-03-27T06:45:13.604Z,3.89
2019-03-27T06:46:13.642Z,3.98
2019-03-27T06:47:13.700Z,3.96
2019-03-27T06:48:25.701Z,3.96
2019-03-27T06:49:13.797Z,3.99
2019-03-27T06:50:13.846Z,4.06
2019-03-27T06:51:13.898Z,4.02
2019-03-27T06:52:13.950Z,4.13
2019-03-27T06:53:14.001Z,4.17
2019-03-27T06:54:14.052Z,4.13
2019-03-27T06:55:14.103Z,4.24
2019-03-27T06:56:14.156Z,4.26
2019-03-27T06:57:14.208Z,4.20
2019-03-27T06:58:14.259Z,4.25
2019-03-27T06:59:14.309Z,4.29
2019-03-27T07:00:14.370Z,4.28
2019-03-27T07:01:14.413Z,4.31
2019-03-27T07:02:14.463Z,4.42
2019-03-27T07:03:14.960Z,4.44
2019-03-27T07:04:14.594Z,4.54
2019-03-27T07:05:14.621Z,4.53
2019-03-27T07:06:14.669Z,4.57
2019-03-27T07:07:14.719Z,4.62
2019-03-27T07:08:14.773Z,4.69
2019-03-27T07:09:14.840Z,4.72
2019-03-27T07:10:14.875Z,4.77
2019-03-27T07:11:14.928Z,4.83
2019-03-27T07:12:21.121Z,4.77
2019-03-27T07:13:15.031Z,4.99
2019-03-27T07:14:15.084Z,4.91
2019-03-27T07:15:15.135Z,4.90
2019-03-27T07:16:15.187Z,4.94
2019-03-27T07:17:15.241Z,5.04
2019-03-27T07:18:15.293Z,4.97
2019-03-27T07:19:15.345Z,5.02
2019-03-27T07:20:15.395Z,5.12
2019-03-27T07:21:15.448Z,5.15
2019-03-27T07:22:15.500Z,5.20
2019-03-27T07:23:15.553Z,5.24
2019-03-27T07:24:15.603Z,5.30
2019-03-27T07:25:15.658Z,5.29
2019-03-27T07:26:15.710Z,5.38
2019-03-27T07:27:15.761Z,5.48
2019-03-27T07:28:15.815Z,5.47
2019-03-27T07:29:18.921Z,5.52
2019-03-27T07:30:15.920Z,5.63
2019-03-27T07:31:15.973Z,5.67
2019-03-27T07:32:16.026Z,5.75
2019-03-27T07:33:16.079Z,5.73
2019-03-27T07:34:16.130Z,5.75
2019-03-27T07:35:16.183Z,5.81
2019-03-27T07:36:16.237Z,5.80
2019-03-27T07:37:16.291Z,5.88
2019-03-27T07:38:16.342Z,5.98
2019-03-27T07:39:16.443Z,6.08
2019-03-27T07:40:16.449Z,6.05
2019-03-27T07:41:16.502Z,6.13
2019-03-27T07:42:16.556Z,6.13
2019-03-27T07:43:16.608Z,6.11
2019-03-27T07:44:16.662Z,6.16
2019-03-27T07:45:16.716Z,6.19
2019-03-27T07:46:16.768Z,6.14
2019-03-27T07:47:16.823Z,6.08
2019-03-27T07:48:16.876Z,6.16
2019-03-27T07:49:16.930Z,6.21
2019-03-27T07:50:16.983Z,6.27
2019-03-27T07:51:17.037Z,6.30
2019-03-27T07:52:17.092Z,6.38
2019-03-27T07:53:17.146Z,6.38
2019-03-27T07:54:17.199Z,6.39
2019-03-27T07:55:19.601Z,6.58
2019-03-27T07:56:17.308Z,6.51
2019-03-27T07:57:17.361Z,6.65
2019-03-27T07:58:17.415Z,6.82
2019-03-27T07:59:17.469Z,6.83
2019-03-27T08:00:17.528Z,6.89
2019-03-27T08:01:17.579Z,6.89
2019-03-27T08:02:17.632Z,6.99
2019-03-27T08:03:17.687Z,6.86
2019-03-27T08:04:17.741Z,7.04
2019-03-27T08:05:17.798Z,7.23
2019-03-27T08:06:17.850Z,7.27
2019-03-27T08:07:26.689Z,7.24
2019-03-27T08:08:17.958Z,7.32
2019-03-27T08:09:18.012Z,7.51
2019-03-27T08:10:18.066Z,7.54
2019-03-27T08:11:18.199Z,7.58
2019-03-27T08:12:18.181Z,7.74
2019-03-27T08:13:18.232Z,7.94
2019-03-27T08:14:18.286Z,7.91
2019-03-27T08:15:18.351Z,7.82
2019-03-27T08:16:18.397Z,7.82
2019-03-27T08:17:18.455Z,7.84
2019-03-27T08:18:18.506Z,7.88
2019-03-27T08:19:18.560Z,7.84
2019-03-27T08:20:18.617Z,7.71
2019-03-27T08:21:18.671Z,7.69
2019-03-27T08:22:18.731Z,7.76
2019-03-27T08:23:18.790Z,7.74
2019-03-27T08:24:18.838Z,7.91
2019-03-27T08:25:18.892Z,7.91
2019-03-27T08:26:18.999Z,7.89
2019-03-27T08:27:19.005Z,7.76
2019-03-27T08:28:19.059Z,7.70
2019-03-27T08:29:19.114Z,7.74
2019-03-27T08:30:19.172Z,7.76
2019-03-27T08:31:19.223Z,7.95
2019-03-27T08:32:19.279Z,7.96
2019-03-27T08:33:19.339Z,8.00
2019-03-27T08:34:19.390Z,7.94
2019-03-27T08:35:20.005Z,7.96
2019-03-27T08:36:19.500Z,8.13
2019-03-27T08:37:19.554Z,8.13
2019-03-27T08:38:19.608Z,8.27
2019-03-27T08:39:19.665Z,8.29
2019-03-27T08:40:19.722Z,8.50
2019-03-27T08:41:19.774Z,8.60
2019-03-27T08:42:19.830Z,8.70
2019-03-27T08:43:21.842Z,8.78
2019-03-27T08:44:19.945Z,8.80
2019-03-27T08:45:20.000Z,8.96
2019-03-27T08:46:20.052Z,8.94
2019-03-27T08:47:20.107Z,8.94
2019-03-27T08:48:20.163Z,9.01
2019-03-27T08:49:22.194Z,9.13
2019-03-27T08:50:20.272Z,9.26
2019-03-27T08:51:20.330Z,9.31
2019-03-27T08:52:20.384Z,9.37
2019-03-27T08:53:20.441Z,9.50
2019-03-27T08:54:20.496Z,9.71
2019-03-27T08:55:20.553Z,9.68
2019-03-27T08:56:20.640Z,9.83
2019-03-27T08:57:20.673Z,9.98
2019-03-27T08:58:20.725Z,9.98
2019-03-27T08:59:20.784Z,9.95
2019-03-27T09:00:21.413Z,9.99
2019-03-27T09:01:20.891Z,10.07
2019-03-27T09:02:20.949Z,10.34
2019-03-27T09:03:21.002Z,10.49
2019-03-27T09:04:21.059Z,10.65
2019-03-27T09:05:21.117Z,10.73
2019-03-27T09:06:33.118Z,10.80
2019-03-27T09:07:21.230Z,10.80
2019-03-27T09:08:21.304Z,10.91
2019-03-27T09:09:21.342Z,11.01
2019-03-27T09:10:21.399Z,11.03
2019-03-27T09:11:21.455Z,10.98
2019-03-27T09:12:21.513Z,10.88
2019-03-27T09:13:21.572Z,11.02
2019-03-27T09:14:21.626Z,11.13
2019-03-27T09:15:21.686Z,11.13
2019-03-27T09:16:21.741Z,11.17
2019-03-27T09:17:21.799Z,11.23
2019-03-27T09:18:21.858Z,11.28
2019-03-27T09:19:34.540Z,11.41
2019-03-27T09:20:21.970Z,11.26
2019-03-27T09:21:22.026Z,11.24
2019-03-27T09:22:22.085Z,11.13
2019-03-27T09:23:22.141Z,11.24
2019-03-27T09:24:22.199Z,11.31
2019-03-27T09:25:22.257Z,11.35
2019-03-27T09:26:22.312Z,11.13
2019-03-27T09:27:23.089Z,11.02
2019-03-27T09:28:23.094Z,11.05
2019-03-27T09:29:22.900Z,10.76
2019-03-27T09:30:22.599Z,10.58
2019-03-27T09:31:22.952Z,10.70
2019-03-27T09:32:22.656Z,10.86
2019-03-27T09:33:22.715Z,11.11
2019-03-27T09:34:22.772Z,11.19
2019-03-27T09:35:22.830Z,11.39
2019-03-27T09:36:22.887Z,11.59
2019-03-27T09:37:22.946Z,11.62
2019-03-27T09:38:23.003Z,11.79
2019-03-27T09:39:23.060Z,11.79
2019-03-27T09:40:23.117Z,11.64
2019-03-27T09:41:23.220Z,11.59
2019-03-27T09:42:23.234Z,11.56
2019-03-27T09:43:23.289Z,11.64
2019-03-27T09:44:23.348Z,11.49
2019-03-27T09:45:23.405Z,11.57
2019-03-27T09:46:23.463Z,11.33
2019-03-27T09:47:23.519Z,11.49
2019-03-27T09:48:23.580Z,11.44
2019-03-27T09:49:23.635Z,11.56
2019-03-27T09:50:27.302Z,11.53
2019-03-27T09:51:23.750Z,11.45
2019-03-27T09:52:23.812Z,11.44
2019-03-27T09:53:23.865Z,11.44
2019-03-27T09:54:23.922Z,11.42
2019-03-27T09:55:24.287Z,11.33
2019-03-27T09:56:24.036Z,11.27
2019-03-27T09:57:24.096Z,11.08
2019-03-27T09:58:24.152Z,11.08
2019-03-27T09:59:24.213Z,11.33
2019-03-27T10:00:24.267Z,11.28
2019-03-27T10:01:24.346Z,11.46
2019-03-27T10:02:24.383Z,11.56
2019-03-27T10:03:24.440Z,11.57
2019-03-27T10:04:24.496Z,11.27
2019-03-27T10:05:24.561Z,11.23
2019-03-27T10:06:24.615Z,11.30
2019-03-27T10:07:25.829Z,11.28
2019-03-27T10:08:25.264Z,11.46
2019-03-27T10:09:24.785Z,11.41
2019-03-27T10:10:24.866Z,11.28
2019-03-27T10:11:24.900Z,11.08
2019-03-27T10:12:24.957Z,10.90
2019-03-27T10:13:25.015Z,11.01
2019-03-27T10:14:25.072Z,10.94
2019-03-27T10:15:25.137Z,10.98
2019-03-27T10:16:25.199Z,11.12
2019-03-27T10:17:25.253Z,11.30
2019-03-27T10:18:25.314Z,11.48
2019-03-27T10:19:25.370Z,11.45
2019-03-27T10:20:25.440Z,11.56
2019-03-27T10:21:25.579Z,11.54
2019-03-27T10:22:25.536Z,11.31
2019-03-27T10:23:25.593Z,11.53
2019-03-27T10:24:25.646Z,11.45
2019-03-27T10:25:25.704Z,11.64
2019-03-27T10:26:25.761Z,11.66
2019-03-27T10:27:25.818Z,11.67
2019-03-27T10:28:25.874Z,11.74
2019-03-27T10:29:25.932Z,11.78
2019-03-27T10:30:25.989Z,11.96
2019-03-27T10:31:26.050Z,11.85
2019-03-27T10:32:26.106Z,12.03
2019-03-27T10:33:26.162Z,12.11
2019-03-27T10:34:26.221Z,12.00
2019-03-27T10:35:26.279Z,11.85
2019-03-27T10:36:26.336Z,12.00
2019-03-27T10:37:26.394Z,12.16
2019-03-27T10:38:26.451Z,12.16
2019-03-27T10:39:26.537Z,12.15
2019-03-27T10:40:26.570Z,12.33
2019-03-27T10:41:26.982Z,12.51
2019-03-27T10:42:26.682Z,12.56
2019-03-27T10:43:26.742Z,12.61
2019-03-27T10:44:26.803Z,12.66
2019-03-27T10:45:26.859Z,12.76
2019-03-27T10:46:26.915Z,12.62
2019-03-27T10:47:26.975Z,12.46
2019-03-27T10:48:27.044Z,12.52
2019-03-27T10:49:27.092Z,12.71
2019-03-27T10:50:27.147Z,12.67
2019-03-27T10:51:27.208Z,12.69
2019-03-27T10:52:27.265Z,12.70
2019-03-27T10:53:27.328Z,12.73
2019-03-27T10:54:27.383Z,12.66
2019-03-27T10:55:27.441Z,12.59
2019-03-27T10:56:27.499Z,12.69
2019-03-27T10:57:27.558Z,12.73
2019-03-27T10:58:28.311Z,12.84
2019-03-27T10:59:27.676Z,12.91
2019-03-27T11:00:27.735Z,13.14
2019-03-27T11:01:27.796Z,13.36
2019-03-27T11:02:28.160Z,13.31
2019-03-27T11:03:27.910Z,13.27
2019-03-27T11:04:27.972Z,13.38
2019-03-27T11:05:28.031Z,13.46
2019-03-27T11:06:28.686Z,13.73
2019-03-27T11:07:28.804Z,13.69
2019-03-27T11:08:28.207Z,13.69
2019-03-27T11:09:28.266Z,13.10
2019-03-27T11:10:32.091Z,12.88
2019-03-27T11:11:28.385Z,13.25
2019-03-27T11:12:28.444Z,13.53
2019-03-27T11:13:28.504Z,13.46
2019-03-27T11:14:37.722Z,13.51
2019-03-27T11:15:28.621Z,13.90
2019-03-27T11:16:28.683Z,14.05
2019-03-27T11:17:28.746Z,14.06
2019-03-27T11:18:28.801Z,14.11
2019-03-27T11:19:28.899Z,13.79
2019-03-27T11:20:31.184Z,13.47
2019-03-27T11:22:11.420Z,13.43
2019-03-27T11:23:11.480Z,13.24
2019-03-27T11:24:11.539Z,13.41
2019-03-27T11:25:11.601Z,13.17
2019-03-27T11:26:11.660Z,13.29
2019-03-27T11:27:11.721Z,13.32
2019-03-27T11:28:11.780Z,13.53
2019-03-27T11:29:11.841Z,13.04
2019-03-27T11:30:11.938Z,12.33
2019-03-27T11:31:11.961Z,12.15
2019-03-27T11:32:12.019Z,12.00
2019-03-27T11:33:12.084Z,12.08
2019-03-27T11:34:12.139Z,12.22
2019-03-27T11:35:12.517Z,12.34
2019-03-27T11:36:12.258Z,12.22
2019-03-27T11:37:12.318Z,12.00
2019-03-27T11:38:12.379Z,12.01
2019-03-27T11:39:12.437Z,12.03
2019-03-27T11:40:12.501Z,12.15
2019-03-27T11:41:12.556Z,12.15
2019-03-27T11:42:15.235Z,12.04
2019-03-27T11:43:12.674Z,12.08
2019-03-27T11:44:12.929Z,12.01
2019-03-27T11:45:12.790Z,12.21
2019-03-27T11:46:13.182Z,12.26
2019-03-27T11:47:12.906Z,12.29
2019-03-27T11:48:12.968Z,12.05
2019-03-27T11:49:13.026Z,12.08
2019-03-27T11:50:13.081Z,12.16
2019-03-27T11:51:13.140Z,12.30
2019-03-27T11:52:13.199Z,12.31
2019-03-27T11:53:13.257Z,12.43
2019-03-27T11:54:13.318Z,12.55
2019-03-27T11:55:13.374Z,12.46
2019-03-27T11:56:13.433Z,12.55
2019-03-27T11:57:14.189Z,12.59
2019-03-27T11:58:15.073Z,12.59
2019-03-27T11:59:13.606Z,12.70
2019-03-27T12:00:13.663Z,12.81
2019-03-27T12:01:14.029Z,12.66
2019-03-27T12:02:13.781Z,12.67
2019-03-27T12:03:13.837Z,12.63
2019-03-27T12:04:13.899Z,12.71
2019-03-27T12:05:13.954Z,12.84
2019-03-27T12:06:14.013Z,12.85
2019-03-27T12:07:14.072Z,12.87
2019-03-27T12:08:14.130Z,12.69
2019-03-27T12:09:14.190Z,12.58
2019-03-27T12:10:14.245Z,12.59
2019-03-27T12:11:15.027Z,12.73
2019-03-27T12:12:14.363Z,12.70
2019-03-27T12:13:14.424Z,12.71
2019-03-27T12:14:14.482Z,12.67
2019-03-27T12:15:14.538Z,12.74
2019-03-27T12:16:14.614Z,12.73
2019-03-27T12:17:14.655Z,12.71
2019-03-27T12:18:14.712Z,12.66
2019-03-27T12:19:14.777Z,12.54
2019-03-27T12:20:14.830Z,12.67
2019-03-27T12:21:14.889Z,12.63
2019-03-27T12:22:14.946Z,12.71
2019-03-27T12:23:15.005Z,12.74
2019-03-27T12:24:15.064Z,12.66
2019-03-27T12:25:15.123Z,12.73
2019-03-27T12:26:15.181Z,12.96
2019-03-27T12:27:15.240Z,13.16
2019-03-27T12:28:15.299Z,13.06
2019-03-27T12:29:18.069Z,12.85
2019-03-27T12:30:15.416Z,12.87
2019-03-27T12:31:15.474Z,12.87
2019-03-27T12:32:15.534Z,12.77
2019-03-27T12:33:15.594Z,13.06
2019-03-27T12:34:15.650Z,12.95
2019-03-27T12:35:15.710Z,12.61
2019-03-27T12:36:15.769Z,12.55
2019-03-27T12:37:15.827Z,12.58
2019-03-27T12:38:15.886Z,12.55
2019-03-27T12:39:15.946Z,12.55
2019-03-27T12:40:16.004Z,12.74
2019-03-27T12:41:16.065Z,12.91
2019-03-27T12:42:16.211Z,13.12
2019-03-27T12:43:16.892Z,13.27
2019-03-27T12:44:16.239Z,13.61
2019-03-27T12:45:16.302Z,13.54
2019-03-27T12:46:16.357Z,13.38
2019-03-27T12:47:16.417Z,13.19
2019-03-27T12:48:16.474Z,13.17
2019-03-27T12:49:16.534Z,13.29
2019-03-27T12:50:16.591Z,13.19
2019-03-27T12:51:16.651Z,13.46
2019-03-27T12:52:16.712Z,13.53
2019-03-27T12:53:16.771Z,13.71
2019-03-27T12:54:16.828Z,13.80
2019-03-27T12:55:16.891Z,13.51
2019-03-27T12:56:16.947Z,13.44
2019-03-27T12:57:17.007Z,13.12
2019-03-27T12:58:17.068Z,12.73
2019-03-27T12:59:17.128Z,12.77
2019-03-27T13:00:17.185Z,12.91
2019-03-27T13:01:17.244Z,13.24
2019-03-27T13:02:17.306Z,13.48
2019-03-27T13:03:17.363Z,13.12
2019-03-27T13:04:17.424Z,12.99
2019-03-27T13:05:17.952Z,12.84
2019-03-27T13:06:17.541Z,12.71
2019-03-27T13:07:17.602Z,12.71
2019-03-27T13:08:17.662Z,12.94
2019-03-27T13:09:17.721Z,12.91
2019-03-27T13:10:17.781Z,13.03
2019-03-27T13:11:17.841Z,12.92
2019-03-27T13:12:17.901Z,12.89
2019-03-27T13:13:17.959Z,12.94